Time;durP1;ratioP1;P1;durP2;ratioP2;P2;SDS_P1;SDS_P2;PMS_P1;PMS_P2;Temp;Humidity;BMP_temperature;BMP_pressure;BME280_temperature;BME280_humidity;BME280_pressure;Samples;Min_cycle;Max_cycle;Signal;HPM_P1;HPM_P2
2021/10/26 00:00:14;;;;;;;13.40;4.60;;;;;;;7.73;50.28;99661.91;113687;1192;98766;-72
2021/10/26 00:03:07;;;;;;;13.30;4.80;;;;;;;7.74;50.13;99660.79;113340;1193;112535;-72
2021/10/26 00:05:35;;;;;;;12.00;4.20;;;;;;;7.75;50.13;99660.59;113407;1192;97650;-72
2021/10/26 00:08:03;;;;;;;12.10;4.40;;;;;;;7.74;50.02;99653.55;113393;1192;107498;-72
2021/10/26 00:10:31;;;;;;;13.00;4.80;;;;;;;7.74;50.11;99655.35;113312;1193;96414;-73
2021/10/26 00:12:59;;;;;;;15.40;4.70;;;;;;;7.73;49.91;99658.69;113389;1193;95724;-71
2021/10/26 00:15:27;;;;;;;10.80;4.40;;;;;;;7.74;50.10;99657.29;113423;1193;111193;-71
2021/10/26 00:17:55;;;;;;;15.70;5.00;;;;;;;7.74;50.09;99654.63;113422;1193;97560;-72
2021/10/26 00:20:23;;;;;;;14.10;4.80;;;;;;;7.74;50.13;99650.00;113636;1192;106660;-71
2021/10/26 00:22:52;;;;;;;14.60;4.30;;;;;;;7.78;49.96;99646.65;113664;1192;96086;-71
2021/10/26 00:25:20;;;;;;;11.60;4.40;;;;;;;7.81;49.81;99644.20;113474;1193;97597;-69
2021/10/26 00:27:48;;;;;;;15.00;4.50;;;;;;;7.83;49.70;99643.75;113565;1192;112526;-72
2021/10/26 00:30:20;;;;;;;12.40;4.50;;;;;;;7.83;49.87;99640.36;113564;1192;96064;-72
2021/10/26 00:32:48;;;;;;;14.30;5.40;;;;;;;7.87;49.86;99637.73;113518;1193;107629;-71
2021/10/26 00:35:16;;;;;;;13.50;4.70;;;;;;;7.89;49.78;99635.30;113635;1193;98304;-71
2021/10/26 00:37:46;;;;;;;17.30;4.60;;;;;;;7.92;49.82;99633.94;113465;1193;95064;-71
2021/10/26 00:40:17;;;;;;;13.30;4.30;;;;;;;7.97;49.42;99635.27;113380;1193;111030;-71
2021/10/26 00:42:44;;;;;;;12.30;4.20;;;;;;;8.00;49.44;99631.20;113446;1193;97500;-74
2021/10/26 00:45:12;;;;;;;15.30;4.80;;;;;;;8.03;49.45;99628.59;113448;1192;107515;-74
2021/10/26 00:47:40;;;;;;;10.50;4.20;;;;;;;8.05;49.57;99630.27;113423;1193;95061;-71
2021/10/26 00:50:10;;;;;;;15.20;4.70;;;;;;;8.05;49.55;99631.28;113392;1193;95058;-72
2021/10/26 00:52:39;;;;;;;14.00;4.30;;;;;;;8.05;49.43;99628.45;113429;1192;110631;-72
2021/10/26 00:55:12;;;;;;;13.90;4.80;;;;;;;8.06;49.40;99631.77;113454;1192;99345;-72
2021/10/26 00:57:40;;;;;;;15.00;4.90;;;;;;;8.07;49.49;99627.33;113554;1193;107398;-72
2021/10/26 01:00:10;;;;;;;13.20;4.60;;;;;;;8.08;49.48;99626.23;113385;1192;97665;-73
2021/10/26 01:02:43;;;;;;;15.70;5.10;;;;;;;8.08;49.32;99628.00;113672;1193;95094;-71
2021/10/26 01:05:13;;;;;;;11.60;3.90;;;;;;;8.07;49.41;99629.98;113713;1192;111034;-73
2021/10/26 01:07:43;;;;;;;15.30;5.40;;;;;;;8.06;49.28;99627.02;113752;1193;97650;-73
2021/10/26 01:10:11;;;;;;;13.80;4.90;;;;;;;8.03;49.33;99626.27;113634;1192;107451;-72
2021/10/26 01:12:39;;;;;;;13.30;4.80;;;;;;;8.02;49.35;99622.09;113884;1192;97649;-73
2021/10/26 01:15:10;;;;;;;11.40;4.20;;;;;;;7.99;49.26;99625.43;113924;1192;96072;-74
2021/10/26 01:17:38;;;;;;;11.90;3.90;;;;;;;7.97;49.42;99622.16;113905;1193;111123;-74
2021/10/26 01:20:08;;;;;;;13.30;4.80;;;;;;;7.98;49.16;99625.30;113944;1192;97484;-73
2021/10/26 01:22:39;;;;;;;12.60;4.30;;;;;;;7.98;49.30;99621.40;113549;1193;107502;-74
2021/10/26 01:25:15;;;;;;;16.70;4.40;;;;;;;7.99;49.28;99619.06;113919;1192;97703;-74
2021/10/26 01:27:53;;;;;;;17.90;5.70;;;;;;;7.99;49.11;99616.92;113745;1192;97572;-74
2021/10/26 01:30:28;;;;;;;14.10;4.90;;;;;;;7.97;49.05;99616.89;113934;1192;111169;-72
2021/10/26 01:32:58;;;;;;;15.30;4.90;;;;;;;7.93;49.07;99613.95;113502;1193;97569;-72
2021/10/26 01:35:28;;;;;;;15.00;4.50;;;;;;;7.89;48.96;99613.60;113930;1192;107481;-71
2021/10/26 01:37:58;;;;;;;15.60;5.00;;;;;;;7.85;49.09;99619.45;113565;1193;96911;-72
2021/10/26 01:40:29;;;;;;;13.90;4.70;;;;;;;7.82;49.16;99619.63;113599;1193;97661;-72
2021/10/26 01:42:58;;;;;;;15.00;4.30;;;;;;;7.77;49.08;99617.38;113457;1193;111233;-71
2021/10/26 01:45:26;;;;;;;12.00;4.30;;;;;;;7.73;49.27;99613.90;113477;1193;98320;-69
2021/10/26 01:47:58;;;;;;;16.10;5.30;;;;;;;7.68;49.11;99620.19;113471;1192;107495;-73
2021/10/26 01:50:26;;;;;;;12.30;4.50;;;;;;;7.59;49.17;99622.91;113573;1193;97593;-69
2021/10/26 01:52:54;;;;;;;14.50;4.70;;;;;;;7.51;49.26;99620.66;113476;1193;97576;-72
2021/10/26 01:55:24;;;;;;;11.40;4.20;;;;;;;7.47;49.28;99617.73;113553;1192;110978;-71
2021/10/26 01:57:54;;;;;;;13.60;4.90;;;;;;;7.43;49.35;99616.13;113533;1192;97650;-71
2021/10/26 02:00:23;;;;;;;15.30;5.20;;;;;;;7.40;49.32;99615.41;113564;1192;106540;-70
2021/10/26 02:02:51;;;;;;;14.20;4.80;;;;;;;7.38;49.51;99611.42;113778;1192;97556;-70
2021/10/26 02:05:21;;;;;;;13.80;4.70;;;;;;;7.36;49.41;99610.11;113574;1192;95042;-71
2021/10/26 02:07:49;;;;;;;14.10;5.10;;;;;;;7.32;49.52;99611.06;113900;1193;111153;-71
2021/10/26 02:10:18;;;;;;;12.90;5.10;;;;;;;7.27;49.56;99608.99;113579;1193;97635;-71
2021/10/26 02:12:47;;;;;;;13.60;4.50;;;;;;;7.24;49.46;99605.09;113910;1192;107510;-72
2021/10/26 02:15:17;;;;;;;15.60;5.80;;;;;;;7.20;49.63;99603.52;113944;1191;97643;-70
2021/10/26 02:17:47;;;;;;;13.90;5.10;;;;;;;7.15;49.55;99603.73;113941;1192;97665;-71
2021/10/26 02:20:15;;;;;;;18.30;5.90;;;;;;;7.12;49.62;99598.10;113941;1193;111342;-71
2021/10/26 02:22:43;;;;;;;19.50;5.20;;;;;;;7.07;49.55;99607.34;113960;1193;96010;-71
2021/10/26 02:25:10;;;;;;;15.30;5.20;;;;;;;7.03;49.47;99604.02;113946;1192;107337;-71
2021/10/26 02:27:40;;;;;;;15.60;5.00;;;;;;;6.99;49.72;99605.24;113925;1192;95017;-72
2021/10/26 02:30:11;;;;;;;13.90;5.20;;;;;;;6.95;49.64;99604.20;113974;1192;98279;-71
2021/10/26 02:32:41;;;;;;;15.00;5.10;;;;;;;6.90;49.73;99604.65;113918;1193;111166;-71
2021/10/26 02:35:09;;;;;;;12.90;4.90;;;;;;;6.85;49.84;99600.11;113974;1192;97596;-71
2021/10/26 02:37:36;;;;;;;19.20;4.90;;;;;;;6.82;49.99;99596.20;113923;1192;107418;-70
2021/10/26 02:40:07;;;;;;;19.50;5.30;;;;;;;6.79;50.00;99599.18;113967;1193;98302;-68
2021/10/26 02:42:35;;;;;;;14.00;5.10;;;;;;;6.77;50.09;99596.27;113907;1192;95013;-69
2021/10/26 02:45:08;;;;;;;16.20;5.60;;;;;;;6.74;50.15;99599.07;113942;1192;112220;-69
2021/10/26 02:47:37;;;;;;;16.60;4.70;;;;;;;6.69;50.05;99598.60;113600;1193;97527;-69
2021/10/26 02:50:07;;;;;;;19.10;5.60;;;;;;;6.62;50.14;99597.89;113824;1193;107515;-69
2021/10/26 02:52:39;;;;;;;12.90;4.60;;;;;;;6.56;50.13;99597.77;113909;1192;97559;-71
2021/10/26 02:55:09;;;;;;;13.70;4.70;;;;;;;6.56;50.28;99600.09;113974;1192;95039;-70
2021/10/26 02:57:36;;;;;;;14.00;4.40;;;;;;;6.57;50.44;99600.05;113929;1192;111190;-70
2021/10/26 03:00:10;;;;;;;17.60;5.60;;;;;;;6.53;50.55;99597.08;113950;1192;97582;-69
2021/10/26 03:02:41;;;;;;;13.80;4.80;;;;;;;6.45;50.75;99601.14;113417;1193;107990;-70
2021/10/26 03:05:09;;;;;;;16.20;5.30;;;;;;;6.36;50.60;99602.06;113902;1192;98331;-70
2021/10/26 03:07:43;;;;;;;17.00;5.70;;;;;;;6.31;50.86;99600.19;113752;1192;97622;-71
2021/10/26 03:10:14;;;;;;;19.80;6.00;;;;;;;6.27;50.74;99596.17;113903;1192;111220;-70
2021/10/26 03:12:42;;;;;;;16.70;6.10;;;;;;;6.27;50.89;99599.34;113899;1192;98060;-72
2021/10/26 03:15:12;;;;;;;16.70;5.60;;;;;;;6.29;50.86;99596.27;113882;1192;107500;-72
2021/10/26 03:17:42;;;;;;;19.40;6.30;;;;;;;6.26;51.01;99598.66;113901;1192;97549;-71
2021/10/26 03:20:12;;;;;;;15.20;5.90;;;;;;;6.23;51.04;99597.02;113906;1192;97556;-70
2021/10/26 03:22:40;;;;;;;18.80;6.00;;;;;;;6.20;51.28;99596.27;113754;1193;110430;-71
2021/10/26 03:25:08;;;;;;;14.10;5.40;;;;;;;6.14;51.41;99596.77;113924;1192;98066;-72
2021/10/26 03:27:38;;;;;;;16.60;5.10;;;;;;;6.07;51.45;99592.67;113886;1193;107515;-70
2021/10/26 03:30:10;;;;;;;16.40;5.70;;;;;;;6.01;51.41;99596.29;113910;1192;97640;-71
2021/10/26 03:32:40;;;;;;;15.00;5.20;;;;;;;5.99;51.45;99596.16;113931;1192;94956;-70
2021/10/26 03:35:10;;;;;;;17.10;5.70;;;;;;;5.98;51.72;99591.98;113910;1192;111089;-71
2021/10/26 03:37:41;;;;;;;18.30;5.70;;;;;;;5.97;51.67;99594.65;113779;1193;98207;-70
2021/10/26 03:40:12;;;;;;;19.00;5.80;;;;;;;5.97;51.50;99593.26;113869;1193;107505;-70
2021/10/26 03:42:42;;;;;;;16.40;5.40;;;;;;;5.96;51.68;99597.67;113461;1193;97671;-71
2021/10/26 03:45:11;;;;;;;15.10;5.70;;;;;;;5.97;51.73;99597.65;113874;1192;94967;-70
2021/10/26 03:47:46;;;;;;;17.00;5.50;;;;;;;5.98;51.79;99594.28;113960;1192;110818;-71
2021/10/26 03:50:17;;;;;;;18.40;5.50;;;;;;;5.96;51.81;99593.84;113795;1192;97711;-70
2021/10/26 03:52:45;;;;;;;19.30;5.70;;;;;;;5.94;51.77;99592.52;113866;1192;107615;-70
2021/10/26 03:55:13;;;;;;;18.70;6.80;;;;;;;5.92;51.77;99592.09;113906;1192;95042;-70
2021/10/26 03:57:40;;;;;;;16.60;6.40;;;;;;;5.91;52.01;99591.59;113527;1193;97665;-69
2021/10/26 04:00:08;;;;;;;18.10;6.60;;;;;;;5.87;51.89;99589.30;113905;1194;111129;-69
2021/10/26 04:02:40;;;;;;;18.10;6.50;;;;;;;5.84;52.05;99591.21;113945;1193;96485;-70
2021/10/26 04:05:18;;;;;;;17.70;5.90;;;;;;;5.81;51.94;99589.92;113637;1193;107864;-68
2021/10/26 04:07:58;;;;;;;18.80;5.80;;;;;;;5.80;52.17;99588.19;113881;1193;97619;-72
2021/10/26 04:10:35;;;;;;;11.60;4.80;;;;;;;5.85;52.14;99586.95;113858;1192;97652;-69
2021/10/26 04:13:03;;;;;;;13.70;5.20;;;;;;;5.91;52.07;99588.75;113724;1192;111066;-69
2021/10/26 04:15:31;;;;;;;14.60;5.30;;;;;;;6.01;52.16;99589.78;113806;1193;96953;-70
2021/10/26 04:17:59;;;;;;;14.40;5.00;;;;;;;6.11;52.38;99588.08;113732;1192;109492;-69
2021/10/26 04:20:27;;;;;;;14.30;4.80;;;;;;;6.22;52.47;99589.52;113647;1192;97990;-70
2021/10/26 04:22:55;;;;;;;15.20;4.80;;;;;;;6.33;52.44;99587.05;113306;1192;96872;-70
2021/10/26 04:25:23;;;;;;;15.60;5.50;;;;;;;6.43;52.65;99582.02;113589;1192;111212;-70
2021/10/26 04:27:50;;;;;;;16.30;4.80;;;;;;;6.54;52.61;99584.15;113656;1184;97551;-71
2021/10/26 04:30:19;;;;;;;12.90;5.30;;;;;;;6.63;52.51;99589.20;113342;1192;107150;-70
2021/10/26 04:32:48;;;;;;;17.40;6.10;;;;;;;6.67;52.43;99585.83;113409;1186;97529;-70
2021/10/26 04:35:17;;;;;;;15.30;5.90;;;;;;;6.71;52.37;99587.21;113761;1192;97636;-71
2021/10/26 04:37:48;;;;;;;16.00;5.70;;;;;;;6.76;52.61;99586.08;113344;1193;110955;-71
2021/10/26 04:40:15;;;;;;;15.70;5.80;;;;;;;6.81;52.54;99582.50;113488;1192;95205;-72
2021/10/26 04:42:43;;;;;;;18.50;6.30;;;;;;;6.83;52.34;99583.13;113531;1192;108513;-74
2021/10/26 04:45:14;;;;;;;16.70;5.60;;;;;;;6.82;52.36;99584.41;113525;1184;96344;-72
2021/10/26 04:47:45;;;;;;;15.90;5.80;;;;;;;6.81;52.27;99583.77;113696;1193;97684;-72
2021/10/26 04:50:16;;;;;;;17.70;6.00;;;;;;;6.79;52.48;99584.55;113617;1192;111054;-72
2021/10/26 04:52:48;;;;;;;20.60;6.10;;;;;;;6.77;52.38;99589.39;113601;1192;97618;-72
2021/10/26 04:55:17;;;;;;;17.00;5.60;;;;;;;6.76;52.45;99591.77;113489;1192;107946;-71
2021/10/26 04:57:45;;;;;;;18.10;5.80;;;;;;;6.74;52.36;99594.48;113439;1192;97646;-71
2021/10/26 05:00:13;;;;;;;17.60;5.40;;;;;;;6.73;52.52;99596.14;113594;1192;97559;-72
2021/10/26 05:02:41;;;;;;;15.80;5.70;;;;;;;6.71;52.52;99593.05;113671;1192;111208;-71
2021/10/26 05:05:11;;;;;;;18.20;6.10;;;;;;;6.70;52.55;99595.92;113877;1192;97562;-72
2021/10/26 05:07:39;;;;;;;15.50;5.80;;;;;;;6.67;52.60;99593.92;113644;1192;107561;-72
2021/10/26 05:10:10;;;;;;;14.90;5.80;;;;;;;6.64;52.79;99592.52;113714;1184;97641;-74
2021/10/26 05:12:38;;;;;;;17.90;5.80;;;;;;;6.59;52.77;99591.33;113794;1192;97569;-72
2021/10/26 05:15:09;;;;;;;17.60;6.00;;;;;;;6.56;52.65;99591.80;113801;1193;111693;-66
2021/10/26 05:17:39;;;;;;;15.70;6.50;;;;;;;6.52;52.56;99592.70;113880;1192;94959;-71
2021/10/26 05:20:11;;;;;;;15.70;5.70;;;;;;;6.50;52.57;99599.49;113910;1192;107633;-73
2021/10/26 05:22:41;;;;;;;18.10;6.10;;;;;;;6.48;52.86;99601.54;113926;1192;97655;-72
2021/10/26 05:25:12;;;;;;;17.00;5.60;;;;;;;6.48;52.73;99601.87;113939;1192;97521;-72
2021/10/26 05:27:43;;;;;;;19.60;5.70;;;;;;;6.48;52.76;99599.58;113965;1193;111138;-71
2021/10/26 05:30:11;;;;;;;14.90;5.50;;;;;;;6.49;52.77;99606.22;113932;1192;97576;-72
2021/10/26 05:32:42;;;;;;;19.60;5.80;;;;;;;6.50;52.80;99610.41;113798;1193;105779;-73
2021/10/26 05:35:10;;;;;;;17.20;5.40;;;;;;;6.52;52.89;99611.08;113955;1192;97553;-70
2021/10/26 05:37:38;;;;;;;18.10;6.50;;;;;;;6.52;52.81;99614.19;113966;1192;95102;-71
2021/10/26 05:40:09;;;;;;;24.90;9.90;;;;;;;6.54;52.97;99615.52;113949;1193;110952;-73
2021/10/26 05:42:40;;;;;;;16.10;6.10;;;;;;;6.56;52.90;99615.43;113964;1193;97557;-72
2021/10/26 05:45:08;;;;;;;21.60;6.60;;;;;;;6.56;52.79;99620.17;113946;1193;107449;-73
2021/10/26 05:47:36;;;;;;;20.20;5.80;;;;;;;6.58;52.93;99623.83;113973;1192;97506;-75
2021/10/26 05:50:04;;;;;;;16.60;6.30;;;;;;;6.59;52.92;99623.92;113953;1192;96118;-71
2021/10/26 05:52:32;;;;;;;23.70;6.80;;;;;;;6.61;52.92;99624.52;113944;1192;110708;-71
2021/10/26 05:55:00;;;;;;;20.60;7.10;;;;;;;6.62;53.08;99625.17;113990;1193;97564;-71
2021/10/26 05:57:33;;;;;;;19.30;7.10;;;;;;;6.64;52.83;99632.86;113952;1192;107519;-71
2021/10/26 06:00:07;;;;;;;19.10;6.00;;;;;;;6.66;52.94;99633.10;113924;1192;95035;-71
2021/10/26 06:02:35;;;;;;;21.50;6.70;;;;;;;6.67;53.03;99631.98;113965;1192;97639;-71
2021/10/26 06:05:03;;;;;;;19.20;6.60;;;;;;;6.70;52.95;99632.04;113948;1192;111175;-72
2021/10/26 06:07:31;;;;;;;15.40;5.80;;;;;;;6.74;52.97;99632.02;113990;1193;98231;-69
2021/10/26 06:09:59;;;;;;;15.20;5.50;;;;;;;6.76;52.98;99636.52;113937;1193;105513;-71
2021/10/26 06:12:31;;;;;;;16.20;6.40;;;;;;;6.80;53.13;99639.64;113956;1193;98073;-69
2021/10/26 06:15:07;;;;;;;19.00;6.70;;;;;;;6.84;53.28;99641.06;113987;1193;97640;-71
2021/10/26 06:17:35;;;;;;;19.70;6.50;;;;;;;6.88;53.16;99643.55;113883;1193;111163;-72
2021/10/26 06:20:06;;;;;;;18.80;6.70;;;;;;;6.91;53.10;99641.98;113887;1193;97573;-71
2021/10/26 06:22:34;;;;;;;19.10;6.60;;;;;;;6.95;53.20;99652.02;113923;1193;106578;-72
2021/10/26 06:25:04;;;;;;;15.30;6.30;;;;;;;6.98;53.10;99653.27;113959;1193;97586;-71
2021/10/26 06:27:32;;;;;;;18.10;6.50;;;;;;;7.02;53.08;99651.15;113955;1192;97642;-72
2021/10/26 06:30:06;;;;;;;16.20;6.10;;;;;;;7.06;53.19;99647.97;113920;1192;111240;-72
2021/10/26 06:32:34;;;;;;;17.40;6.20;;;;;;;7.10;52.98;99652.36;113865;1192;97535;-71
2021/10/26 06:35:12;;;;;;;19.20;6.70;;;;;;;7.13;53.19;99659.55;113840;1193;107484;-72
2021/10/26 06:37:43;;;;;;;18.30;6.70;;;;;;;7.19;53.23;99663.04;113966;1192;97664;-71
2021/10/26 06:40:18;;;;;;;19.00;6.90;;;;;;;7.23;53.25;99666.68;113895;1192;97566;-71
2021/10/26 06:42:46;;;;;;;17.30;6.60;;;;;;;7.28;53.32;99668.41;113962;1191;111160;-72
2021/10/26 06:45:14;;;;;;;17.40;6.20;;;;;;;7.33;53.26;99664.66;113635;1193;97732;-72
2021/10/26 06:47:44;;;;;;;19.40;6.40;;;;;;;7.37;53.17;99666.89;113970;1192;106635;-72
2021/10/26 06:50:12;;;;;;;20.30;7.30;;;;;;;7.42;53.31;99673.73;113952;1192;97547;-73
2021/10/26 06:52:41;;;;;;;24.40;7.70;;;;;;;7.46;53.41;99666.61;114007;1193;97652;-72
2021/10/26 06:55:17;;;;;;;18.10;6.70;;;;;;;7.51;53.27;99671.85;113930;1192;111203;-73
2021/10/26 06:57:50;;;;;;;18.30;6.90;;;;;;;7.57;53.27;99672.45;113942;1192;95016;-71
2021/10/26 07:00:23;;;;;;;19.20;7.70;;;;;;;7.62;53.28;99675.70;113947;1193;106643;-72
2021/10/26 07:02:55;;;;;;;19.60;7.10;;;;;;;7.67;53.38;99672.64;113986;1192;95039;-72
2021/10/26 07:05:27;;;;;;;24.20;9.20;;;;;;;7.72;53.31;99669.72;113983;1192;96848;-72
2021/10/26 07:07:54;;;;;;;19.50;6.90;;;;;;;7.78;53.34;99672.45;113944;1193;111316;-73
2021/10/26 07:10:23;;;;;;;20.80;8.10;;;;;;;7.83;53.48;99670.59;113907;1192;97518;-75
2021/10/26 07:12:54;;;;;;;19.50;8.00;;;;;;;7.89;53.36;99672.77;113934;1193;107487;-72
2021/10/26 07:15:29;;;;;;;21.20;7.60;;;;;;;7.95;53.13;99669.09;113937;1188;95149;-72
2021/10/26 07:18:03;;;;;;;18.10;6.80;;;;;;;8.01;53.18;99671.44;113975;1192;97541;-74
2021/10/26 07:20:33;;;;;;;25.00;8.80;;;;;;;8.07;53.24;99666.87;113844;1193;111605;-72
2021/10/26 07:23:07;;;;;;;23.20;7.50;;;;;;;8.15;53.24;99667.34;113966;1192;97637;-73
2021/10/26 07:25:35;;;;;;;20.90;7.20;;;;;;;8.22;53.08;99669.79;113932;1192;107477;-72
2021/10/26 07:28:06;;;;;;;21.00;7.50;;;;;;;8.30;53.21;99667.97;113965;1193;97604;-72
2021/10/26 07:30:35;;;;;;;18.70;7.30;;;;;;;8.38;53.16;99669.33;113945;1192;97612;-73
2021/10/26 07:33:08;;;;;;;21.10;7.50;;;;;;;8.44;53.21;99669.67;113924;1192;111129;-72
2021/10/26 07:35:42;;;;;;;16.70;7.10;;;;;;;8.51;53.05;99667.23;113962;1193;95042;-71
2021/10/26 07:38:28;;;;;;;22.30;7.50;;;;;;;8.59;53.04;99666.80;113982;1193;107521;-71
2021/10/26 07:41:02;;;;;;;20.40;7.30;;;;;;;8.67;53.09;99673.45;113955;1193;97650;-72
2021/10/26 07:43:31;;;;;;;19.80;7.90;;;;;;;8.72;52.96;99664.66;113973;1191;97612;-71
2021/10/26 07:46:06;;;;;;;20.30;7.40;;;;;;;8.78;52.85;99666.61;113960;1192;110945;-71
2021/10/26 07:48:34;;;;;;;19.50;7.90;;;;;;;8.86;52.80;99668.84;113988;1193;97507;-71
2021/10/26 07:51:02;;;;;;;18.70;7.10;;;;;;;8.94;52.78;99668.77;113935;1193;107426;-70
2021/10/26 07:53:33;;;;;;;17.40;6.60;;;;;;;9.01;52.78;99669.08;113929;1192;97639;-71
2021/10/26 07:56:09;;;;;;;16.70;6.80;;;;;;;9.09;52.71;99665.77;113986;1193;97637;-71
2021/10/26 07:58:41;;;;;;;20.50;6.70;;;;;;;9.19;52.68;99669.50;113984;1193;111173;-70
2021/10/26 08:01:10;;;;;;;19.90;7.50;;;;;;;9.29;52.45;99671.58;113989;1192;96494;-71
2021/10/26 08:03:41;;;;;;;18.30;6.50;;;;;;;9.36;52.53;99672.02;113796;1193;107554;-73
2021/10/26 08:06:12;;;;;;;19.30;6.60;;;;;;;9.45;52.49;99668.69;113808;1192;97673;-71
2021/10/26 08:08:40;;;;;;;18.60;7.00;;;;;;;9.53;52.34;99663.46;113795;1193;97647;-72
2021/10/26 08:11:19;;;;;;;21.00;6.30;;;;;;;9.62;52.26;99663.96;113657;1193;111112;-71
2021/10/26 08:13:47;;;;;;;18.40;6.70;;;;;;;9.72;52.17;99664.67;113790;1193;95013;-72
2021/10/26 08:16:15;;;;;;;20.10;6.80;;;;;;;9.81;52.15;99664.83;113670;1192;107520;-72
2021/10/26 08:18:43;;;;;;;17.40;7.30;;;;;;;9.90;52.15;99668.17;113824;1193;98334;-71
2021/10/26 08:21:15;;;;;;;18.80;6.20;;;;;;;10.00;51.96;99668.64;113823;1193;97695;-73
2021/10/26 08:23:44;;;;;;;16.10;6.20;;;;;;;10.10;51.93;99668.54;113794;1192;110926;-71
2021/10/26 08:26:19;;;;;;;17.00;5.90;;;;;;;10.22;51.68;99668.35;113652;1192;97563;-73
2021/10/26 08:28:54;;;;;;;19.60;6.30;;;;;;;10.37;51.59;99666.96;113772;1192;107499;-72
2021/10/26 08:31:35;;;;;;;17.30;6.10;;;;;;;10.53;51.45;99665.98;113782;1193;97691;-71
2021/10/26 08:34:13;;;;;;;16.10;6.30;;;;;;;10.71;51.19;99659.71;113805;1193;95086;-72
2021/10/26 08:36:41;;;;;;;17.40;5.90;;;;;;;10.93;51.10;99659.70;113800;1193;111132;-71
2021/10/26 08:39:09;;;;;;;16.30;5.80;;;;;;;11.21;51.07;99658.61;113703;1192;97560;-72
2021/10/26 08:41:46;;;;;;;17.10;6.50;;;;;;;11.51;50.81;99655.77;113792;1192;106753;-71
2021/10/26 08:44:18;;;;;;;18.20;6.40;;;;;;;11.80;50.97;99655.06;113791;1192;97555;-71
2021/10/26 08:46:48;;;;;;;19.90;6.90;;;;;;;12.09;50.62;99649.21;113796;1192;97541;-71
2021/10/26 08:49:20;;;;;;;21.00;6.90;;;;;;;12.35;50.50;99648.41;113760;1193;110977;-69
2021/10/26 08:51:52;;;;;;;20.10;7.10;;;;;;;12.61;50.55;99645.52;113648;1192;95167;-71
2021/10/26 08:54:23;;;;;;;17.40;6.40;;;;;;;12.92;50.41;99652.38;113763;1192;107637;-72
2021/10/26 08:56:53;;;;;;;14.30;6.10;;;;;;;13.21;50.16;99653.11;113782;1192;97638;-72
2021/10/26 08:59:22;;;;;;;18.60;6.70;;;;;;;13.42;49.83;99652.13;113817;1193;94935;-72
2021/10/26 09:02:00;;;;;;;20.20;6.90;;;;;;;13.61;49.82;99651.77;113778;1184;111176;-71
2021/10/26 09:04:34;;;;;;;17.00;6.50;;;;;;;13.81;49.73;99654.70;113813;1193;96883;-72
2021/10/26 09:07:19;;;;;;;15.20;5.90;;;;;;;14.09;49.61;99658.65;113672;1192;107522;-73
2021/10/26 09:09:46;;;;;;;16.60;6.20;;;;;;;14.41;49.29;99654.22;113800;1192;97590;-73
2021/10/26 09:17:53;;;;;;;22.00;7.40;;;;;;;15.21;48.02;99651.38;113722;1193;95042;-70
2021/10/26 09:20:30;;;;;;;19.60;7.50;;;;;;;15.33;48.67;99652.84;113704;1193;107587;-71
2021/10/26 09:23:04;;;;;;;23.00;7.10;;;;;;;15.46;48.23;99650.52;113810;1193;95135;-71
2021/10/26 09:25:37;;;;;;;17.90;7.10;;;;;;;15.39;48.12;99650.73;113819;1192;95802;-72
2021/10/26 09:28:08;;;;;;;;;;;;;;;15.32;48.03;99648.98;113820;1193;112021;-72
2021/10/26 09:30:36;;;;;;;18.40;5.70;;;;;;;15.24;48.17;99651.52;113718;1192;95902;-71
2021/10/26 09:33:07;;;;;;;18.30;6.90;;;;;;;15.19;48.25;99651.70;113813;1192;107131;-71
2021/10/26 09:35:38;;;;;;;19.30;6.60;;;;;;;15.18;47.92;99653.41;113817;1193;97620;-71
2021/10/26 09:38:06;;;;;;;14.90;6.30;;;;;;;15.05;47.48;99658.51;113803;1192;97506;-71
2021/10/26 09:40:44;;;;;;;19.50;7.20;;;;;;;14.94;47.42;99657.66;113798;1193;111130;-72
2021/10/26 09:43:15;;;;;;;17.90;6.70;;;;;;;14.91;47.68;99657.87;113481;1193;97806;-70
2021/10/26 09:45:42;;;;;;;19.20;6.80;;;;;;;14.94;47.18;99655.52;113810;1193;107538;-72
2021/10/26 09:48:19;;;;;;;18.00;6.80;;;;;;;14.97;47.19;99648.70;113780;1193;97752;-75
2021/10/26 09:51:01;;;;;;;18.30;6.80;;;;;;;15.00;47.18;99644.45;113824;1193;97648;-72
2021/10/26 09:53:35;;;;;;;19.80;7.00;;;;;;;15.05;46.90;99646.97;113817;1192;111152;-71
2021/10/26 09:56:05;;;;;;;16.90;7.20;;;;;;;15.05;46.33;99644.12;113830;1193;96922;-71
2021/10/26 09:58:33;;;;;;;18.60;6.70;;;;;;;15.01;46.39;99644.56;113776;1192;106517;-72
2021/10/26 10:01:12;;;;;;;17.60;6.70;;;;;;;15.01;46.25;99639.80;113727;1192;97673;-72
2021/10/26 10:03:43;;;;;;;20.40;6.80;;;;;;;15.06;46.38;99635.62;113808;1193;97670;-71
2021/10/26 10:06:14;;;;;;;18.00;6.50;;;;;;;15.12;46.37;99636.76;113691;1192;111141;-71
2021/10/26 10:08:44;;;;;;;17.20;6.10;;;;;;;15.17;46.38;99633.96;113800;1193;97577;-72
2021/10/26 10:11:21;;;;;;;17.90;7.10;;;;;;;15.23;46.26;99631.73;113807;1193;107533;-72
2021/10/26 10:13:56;;;;;;;20.50;6.50;;;;;;;15.25;46.10;99627.98;113769;1193;95128;-72
2021/10/26 10:16:30;;;;;;;16.40;6.00;;;;;;;15.23;45.99;99628.52;113773;1193;97618;-69
2021/10/26 10:19:01;;;;;;;17.50;6.60;;;;;;;15.20;45.82;99624.80;113756;1192;110929;-72
2021/10/26 10:21:30;;;;;;;19.90;7.20;;;;;;;15.20;45.94;99616.96;113803;1193;97634;-71
2021/10/26 10:24:05;;;;;;;19.50;7.40;;;;;;;15.21;45.89;99614.54;113765;1192;107571;-72
2021/10/26 10:26:38;;;;;;;17.90;6.60;;;;;;;15.22;45.84;99615.41;113805;1193;94958;-70
2021/10/26 10:29:09;;;;;;;16.30;6.60;;;;;;;15.16;45.46;99615.48;113805;1193;97570;-70
2021/10/26 10:31:38;;;;;;;17.40;6.40;;;;;;;15.09;45.43;99611.45;113405;1194;111253;-70
2021/10/26 10:34:11;;;;;;;16.40;5.50;;;;;;;15.03;45.05;99610.01;113819;1193;97567;-70
2021/10/26 10:36:42;;;;;;;16.80;6.10;;;;;;;14.96;45.07;99605.74;113691;1192;107502;-70
2021/10/26 10:39:11;;;;;;;18.90;6.20;;;;;;;14.97;45.07;99602.80;113812;1193;95099;-73
2021/10/26 10:41:43;;;;;;;18.60;6.30;;;;;;;15.02;45.09;99599.35;113779;1193;97648;-70
2021/10/26 10:44:20;;;;;;;17.00;6.40;;;;;;;15.00;44.88;99601.83;113416;1193;111146;-70
2021/10/26 10:46:53;;;;;;;16.50;6.10;;;;;;;14.98;44.87;99598.94;113796;1193;97605;-70
2021/10/26 10:49:44;;;;;;;18.10;6.30;;;;;;;14.99;44.75;99598.14;113766;1192;107496;-70
2021/10/26 10:52:21;;;;;;;14.90;6.00;;;;;;;15.07;44.88;99591.74;113793;1193;97630;-71
2021/10/26 10:54:53;;;;;;;19.00;6.70;;;;;;;15.11;44.57;99588.98;113469;1193;97619;-71
2021/10/26 10:57:36;;;;;;;19.10;7.20;;;;;;;15.08;44.44;99587.73;113820;1192;111154;-71
2021/10/26 11:00:22;;;;;;;21.00;8.80;;;;;;;15.08;44.38;99587.73;113799;1193;95099;-71
2021/10/26 11:03:00;;;;;;;18.90;7.80;;;;;;;15.08;44.21;99581.02;113811;1192;107525;-71
2021/10/26 11:05:35;;;;;;;20.50;7.40;;;;;;;15.09;44.23;99576.23;113460;1194;97638;-70
2021/10/26 11:08:13;;;;;;;17.40;6.40;;;;;;;15.14;44.15;99568.52;113750;1193;97649;-74
2021/10/26 11:10:50;;;;;;;17.70;6.60;;;;;;;15.22;44.26;99567.66;113728;1193;111223;-71
2021/10/26 11:13:23;;;;;;;19.30;7.10;;;;;;;15.29;43.91;99565.81;113773;1193;98250;-69
2021/10/26 11:15:58;;;;;;;15.20;6.20;;;;;;;15.33;43.96;99563.85;113781;1193;106496;-72
2021/10/26 11:18:45;;;;;;;18.30;7.20;;;;;;;15.35;43.80;99561.23;113469;1193;97624;-71
2021/10/26 11:21:25;;;;;;;17.10;6.30;;;;;;;15.42;43.65;99563.18;113518;1193;97644;-72
2021/10/26 11:23:58;;;;;;;17.70;6.60;;;;;;;15.43;43.50;99559.30;113827;1193;110568;-72
2021/10/26 11:26:42;;;;;;;18.40;6.90;;;;;;;15.45;43.64;99561.94;113820;1193;98239;-72
2021/10/26 11:29:29;;;;;;;17.80;6.20;;;;;;;15.46;43.35;99559.52;113790;1193;107482;-73
2021/10/26 11:31:57;;;;;;;16.30;6.20;;;;;;;15.47;43.38;99557.09;113705;1192;98480;-71
2021/10/26 11:34:33;;;;;;;17.60;6.20;;;;;;;15.46;42.86;99557.65;113476;1192;97572;-70
2021/10/26 11:37:09;;;;;;;15.50;5.90;;;;;;;15.39;42.70;99556.11;113374;1193;111163;-71
2021/10/26 11:39:41;;;;;;;17.30;5.70;;;;;;;15.32;42.60;99549.11;113572;1192;95705;-71
2021/10/26 11:42:12;;;;;;;16.30;6.50;;;;;;;15.31;42.70;99548.12;113585;1192;107585;-69